Time,TemperatureF,DewpointF,PressureIn,WindDirection,WindDirectionDegrees,WindSpeedMPH,WindSpeedGustMPH,Humidity,HourlyPrecipIn,Conditions,Clouds,dailyrainin,SoftwareType,DateUTC
2013-04-03 00:00:00,34.8,17.6,29.96,West,281,5.0,5.0,49,0.00,,,0.00,Wunderground v.1.15,2013-04-03 04:00:00,
2013-04-03 00:08:00,34.5,17.3,29.96,NW,305,2.0,5.0,49,0.00,,,0.00,Wunderground v.1.15,2013-04-03 04:08:00,
2013-04-03 00:10:00,34.4,16.7,29.97,WNW,294,2.0,5.0,48,0.00,,,0.00,Wunderground v.1.15,2013-04-03 04:10:00,
2013-04-03 00:16:00,34.4,17.2,29.97,WNW,288,3.0,6.0,49,0.00,,,0.00,Wunderground v.1.15,2013-04-03 04:16:00,
2013-04-03 00:22:00,34.4,17.2,29.97,WNW,292,3.0,3.0,49,0.00,,,0.00,Wunderground v.1.15,2013-04-03 04:22:00,
2013-04-03 00:28:00,34.4,17.2,29.97,WNW,292,2.0,3.0,49,0.00,,,0.00,Wunderground v.1.15,2013-04-03 04:28:00,
2013-04-03 00:34:00,34.4,18.1,29.97,WNW,300,2.0,5.0,51,0.00,,,0.00,Wunderground v.1.15,2013-04-03 04:34:00,
2013-04-03 00:40:00,34.2,17.9,29.97,WNW,290,1.0,1.0,51,0.00,,,0.00,Wunderground v.1.15,2013-04-03 04:40:00,
2013-04-03 00:44:00,34.1,17.8,29.97,WNW,290,1.0,3.0,51,0.00,,,0.00,Wunderground v.1.15,2013-04-03 04:44:00,
2013-04-03 00:50:00,33.9,18.1,29.97,WNW,295,1.0,1.0,52,0.00,,,0.00,Wunderground v.1.15,2013-04-03 04:50:00,
2013-04-03 00:58:00,33.8,17.6,29.97,NW,304,1.0,5.0,51,0.00,,,0.00,Wunderground v.1.15,2013-04-03 04:58:00,
2013-04-03 01:04:00,33.8,17.6,29.97,WNW,300,2.0,3.0,51,0.00,,,0.00,Wunderground v.1.15,2013-04-03 05:04:00,
2013-04-03 01:10:00,33.8,17.6,29.97,WNW,286,2.0,4.0,51,0.00,,,0.00,Wunderground v.1.15,2013-04-03 05:10:00,
2013-04-03 01:18:00,33.9,17.7,29.97,WNW,290,2.0,4.0,51,0.00,,,0.00,Wunderground v.1.15,2013-04-03 05:18:00,
2013-04-03 01:24:00,33.9,17.2,29.97,WNW,297,2.0,3.0,50,0.00,,,0.00,Wunderground v.1.15,2013-04-03 05:24:00,
2013-04-03 01:30:00,33.8,17.6,29.97,WNW,287,2.0,3.0,51,0.00,,,0.00,Wunderground v.1.15,2013-04-03 05:30:00,
2013-04-03 01:36:00,33.8,17.1,29.97,NW,311,2.0,5.0,50,0.00,,,0.00,Wunderground v.1.15,2013-04-03 05:36:00,
2013-04-03 01:42:00,33.9,17.2,29.97,West,274,3.0,4.0,50,0.00,,,0.00,Wunderground v.1.15,2013-04-03 05:42:00,
2013-04-03 01:48:00,33.9,17.2,29.97,WNW,284,4.0,4.0,50,0.00,,,0.00,Wunderground v.1.15,2013-04-03 05:48:00,
2013-04-03 01:54:00,33.9,17.2,29.97,West,279,4.0,4.0,50,0.00,,,0.00,Wunderground v.1.15,2013-04-03 05:54:00,
2013-04-03 02:00:00,33.8,16.6,29.97,WNW,287,3.0,3.0,49,0.00,,,0.00,Wunderground v.1.15,2013-04-03 06:00:00,
2013-04-03 02:06:00,33.8,17.1,29.97,NW,315,4.0,7.0,50,0.00,,,0.00,Wunderground v.1.15,2013-04-03 06:06:00,
2013-04-03 02:12:00,33.7,17.0,29.97,NNW,339,2.0,4.0,50,0.00,,,0.00,Wunderground v.1.15,2013-04-03 06:12:00,
2013-04-03 02:18:00,33.6,17.4,29.97,NW,310,2.0,5.0,51,0.00,,,0.00,Wunderground v.1.15,2013-04-03 06:18:00,
2013-04-03 02:24:00,33.4,17.2,29.97,West,266,2.0,4.0,51,0.00,,,0.00,Wunderground v.1.15,2013-04-03 06:24:00,
2013-04-03 02:32:00,33.4,16.3,29.97,WSW,237,3.0,5.0,49,0.00,,,0.00,Wunderground v.1.15,2013-04-03 06:32:00,
2013-04-03 02:38:00,33.5,16.4,29.98,WNW,298,5.0,9.0,49,0.00,,,0.00,Wunderground v.1.15,2013-04-03 06:38:00,
2013-04-03 02:44:00,33.6,16.5,29.98,WNW,293,4.0,9.0,49,0.00,,,0.00,Wunderground v.1.15,2013-04-03 06:44:00,
2013-04-03 02:50:00,33.4,16.7,29.97,WNW,295,3.0,3.0,50,0.00,,,0.00,Wunderground v.1.15,2013-04-03 06:50:00,
2013-04-03 02:56:00,33.2,16.5,29.97,West,260,2.0,4.0,50,0.00,,,0.00,Wunderground v.1.15,2013-04-03 06:56:00,
2013-04-03 03:02:00,33.2,17.0,29.97,NW,307,2.0,4.0,51,0.00,,,0.00,Wunderground v.1.15,2013-04-03 07:02:00,
2013-04-03 03:08:00,33.2,16.1,29.97,West,261,3.0,9.0,49,0.00,,,0.00,Wunderground v.1.15,2013-04-03 07:08:00,
2013-04-03 03:14:00,33.2,16.1,29.97,WSW,256,4.0,5.0,49,0.00,,,0.00,Wunderground v.1.15,2013-04-03 07:14:00,
2013-04-03 03:20:00,33.1,16.5,29.97,WNW,296,3.0,3.0,50,0.00,,,0.00,Wunderground v.1.15,2013-04-03 07:20:00,
2013-04-03 03:28:00,33.0,15.9,29.97,West,276,2.0,4.0,49,0.00,,,0.00,Wunderground v.1.15,2013-04-03 07:28:00,
2013-04-03 03:34:00,33.0,16.4,29.97,East,94,2.0,4.0,50,0.00,,,0.00,Wunderground v.1.15,2013-04-03 07:34:00,
2013-04-03 03:40:00,32.9,16.3,29.97,WNW,300,2.0,4.0,50,0.00,,,0.00,Wunderground v.1.15,2013-04-03 07:40:00,
2013-04-03 03:46:00,33.0,16.4,29.98,NW,306,3.0,4.0,50,0.00,,,0.00,Wunderground v.1.15,2013-04-03 07:46:00,
2013-04-03 03:52:00,32.9,15.8,29.98,West,269,2.0,4.0,49,0.00,,,0.00,Wunderground v.1.15,2013-04-03 07:52:00,
2013-04-03 03:58:00,33.0,15.9,29.97,WNW,292,3.0,5.0,49,0.00,,,0.00,Wunderground v.1.15,2013-04-03 07:58:00,
2013-04-03 04:04:00,32.9,15.8,29.97,WNW,303,2.0,5.0,49,0.00,,,0.00,Wunderground v.1.15,2013-04-03 08:04:00,
2013-04-03 04:10:00,32.8,16.6,29.98,WNW,290,2.0,4.0,51,0.00,,,0.00,Wunderground v.1.15,2013-04-03 08:10:00,
2013-04-03 04:16:00,32.7,16.1,29.97,WNW,292,2.0,6.0,50,0.00,,,0.00,Wunderground v.1.15,2013-04-03 08:16:00,
2013-04-03 04:22:00,32.7,16.1,29.97,WNW,292,3.0,5.0,50,0.00,,,0.00,Wunderground v.1.15,2013-04-03 08:22:00,
2013-04-03 04:28:00,32.7,16.1,29.97,WNW,299,4.0,5.0,50,0.00,,,0.00,Wunderground v.1.15,2013-04-03 08:28:00,
2013-04-03 04:34:00,32.7,16.1,29.98,West,277,4.0,5.0,50,0.00,,,0.00,Wunderground v.1.15,2013-04-03 08:34:00,
2013-04-03 04:40:00,32.7,16.1,29.98,WNW,291,4.0,4.0,50,0.00,,,0.00,Wunderground v.1.15,2013-04-03 08:40:00,
2013-04-03 04:46:00,32.5,16.4,29.98,WNW,295,2.0,6.0,51,0.00,,,0.00,Wunderground v.1.15,2013-04-03 08:46:00,
2013-04-03 04:52:00,32.4,15.8,29.98,WNW,291,2.0,5.0,50,0.00,,,0.00,Wunderground v.1.15,2013-04-03 08:52:00,
2013-04-03 04:58:00,32.5,15.4,29.98,West,277,3.0,5.0,49,0.00,,,0.00,Wunderground v.1.15,2013-04-03 08:58:00,
2013-04-03 05:04:00,32.5,15.0,29.98,NW,304,4.0,5.0,48,0.00,,,0.00,Wunderground v.1.15,2013-04-03 09:04:00,
2013-04-03 05:10:00,32.3,14.8,29.99,WNW,290,3.0,4.0,48,0.00,,,0.00,Wunderground v.1.15,2013-04-03 09:10:00,
2013-04-03 05:18:00,32.1,15.1,29.99,WNW,298,2.0,4.0,49,0.00,,,0.00,Wunderground v.1.15,2013-04-03 09:18:00,
2013-04-03 05:24:00,32.3,14.8,29.99,WNW,283,3.0,6.0,48,0.00,,,0.00,Wunderground v.1.15,2013-04-03 09:24:00,
2013-04-03 05:30:00,32.2,14.7,29.99,WNW,298,4.0,4.0,48,0.00,,,0.00,Wunderground v.1.15,2013-04-03 09:30:00,
2013-04-03 05:36:00,32.1,15.1,29.99,WNW,282,2.0,5.0,49,0.00,,,0.00,Wunderground v.1.15,2013-04-03 09:36:00,
2013-04-03 05:42:00,32.1,15.1,30.00,West,269,2.0,5.0,49,0.00,,,0.00,Wunderground v.1.15,2013-04-03 09:42:00,
2013-04-03 05:48:00,32.1,15.1,30.00,WNW,288,2.0,5.0,49,0.00,,,0.00,Wunderground v.1.15,2013-04-03 09:48:00,
2013-04-03 05:54:00,31.9,14.9,30.00,WNW,292,2.0,4.0,49,0.00,,,0.00,Wunderground v.1.15,2013-04-03 09:54:00,
2013-04-03 06:00:00,31.8,15.3,30.00,WNW,296,1.0,1.0,50,0.00,,,0.00,Wunderground v.1.15,2013-04-03 10:00:00,
2013-04-03 06:06:00,31.6,15.5,30.01,WNW,286,2.0,4.0,51,0.00,,,0.00,Wunderground v.1.15,2013-04-03 10:06:00,
2013-04-03 06:12:00,31.5,15.9,30.01,WNW,287,1.0,4.0,52,0.00,,,0.00,Wunderground v.1.15,2013-04-03 10:12:00,
2013-04-03 06:18:00,31.4,15.8,30.01,WNW,287,1.0,4.0,52,0.00,,,0.00,Wunderground v.1.15,2013-04-03 10:18:00,
2013-04-03 06:24:00,31.2,15.6,30.01,WNW,288,1.0,4.0,52,0.00,,,0.00,Wunderground v.1.15,2013-04-03 10:24:00,
2013-04-03 06:30:00,31.4,15.3,30.01,WNW,282,3.0,4.0,51,0.00,,,0.00,Wunderground v.1.15,2013-04-03 10:30:00,
2013-04-03 06:36:00,31.5,15.0,30.01,West,280,3.0,4.0,50,0.00,,,0.00,Wunderground v.1.15,2013-04-03 10:36:00,
2013-04-03 06:42:00,31.4,14.9,30.02,NNW,340,2.0,4.0,50,0.00,,,0.00,Wunderground v.1.15,2013-04-03 10:42:00,
2013-04-03 06:48:00,31.3,15.2,30.02,WNW,286,1.0,4.0,51,0.00,,,0.00,Wunderground v.1.15,2013-04-03 10:48:00,
2013-04-03 06:54:00,31.4,14.9,30.02,WNW,286,1.0,4.0,50,0.00,,,0.00,Wunderground v.1.15,2013-04-03 10:54:00,
2013-04-03 07:00:00,31.4,15.3,30.02,WNW,292,1.0,1.0,51,0.00,,,0.00,Wunderground v.1.15,2013-04-03 11:00:00,
2013-04-03 07:08:00,31.5,15.4,30.02,WNW,288,1.0,4.0,51,0.00,,,0.00,Wunderground v.1.15,2013-04-03 11:08:00,
2013-04-03 07:14:00,31.6,15.5,30.03,WNW,288,1.0,4.0,51,0.00,,,0.00,Wunderground v.1.15,2013-04-03 11:14:00,
2013-04-03 07:20:00,31.7,15.2,30.03,WSW,242,1.0,4.0,50,0.00,,,0.00,Wunderground v.1.15,2013-04-03 11:20:00,
2013-04-03 07:26:00,31.8,15.3,30.03,West,281,1.0,4.0,50,0.00,,,0.00,Wunderground v.1.15,2013-04-03 11:26:00,
2013-04-03 07:32:00,32.1,15.5,30.03,WNW,294,1.0,4.0,50,0.00,,,0.00,Wunderground v.1.15,2013-04-03 11:32:00,
2013-04-03 07:38:00,32.4,15.3,30.03,WNW,288,1.0,4.0,49,0.00,,,0.00,Wunderground v.1.15,2013-04-03 11:38:00,
2013-04-03 07:44:00,32.7,15.6,30.03,West,271,2.0,4.0,49,0.00,,,0.00,Wunderground v.1.15,2013-04-03 11:44:00,
2013-04-03 07:50:00,32.9,15.3,30.03,West,279,2.0,2.0,48,0.00,,,0.00,Wunderground v.1.15,2013-04-03 11:50:00,
2013-04-03 07:56:00,33.1,15.0,30.03,NW,310,3.0,5.0,47,0.00,,,0.00,Wunderground v.1.15,2013-04-03 11:56:00,
2013-04-03 08:02:00,33.3,15.2,30.03,West,269,3.0,6.0,47,0.00,,,0.00,Wunderground v.1.15,2013-04-03 12:02:00,
2013-04-03 08:08:00,33.3,15.2,30.03,WNW,295,4.0,6.0,47,0.00,,,0.00,Wunderground v.1.15,2013-04-03 12:08:00,
2013-04-03 08:14:00,33.5,15.4,30.03,WNW,286,4.0,7.0,47,0.00,,,0.00,Wunderground v.1.15,2013-04-03 12:14:00,
2013-04-03 08:20:00,33.8,15.2,30.03,WNW,290,3.0,5.0,46,0.00,,,0.00,Wunderground v.1.15,2013-04-03 12:20:00,
2013-04-03 08:26:00,34.2,15.5,30.03,NW,307,2.0,5.0,46,0.00,,,0.00,Wunderground v.1.15,2013-04-03 12:26:00,
2013-04-03 08:32:00,34.4,15.2,30.03,NW,305,2.0,4.0,45,0.00,,,0.00,Wunderground v.1.15,2013-04-03 12:32:00,
2013-04-03 08:38:00,34.4,15.2,30.03,WNW,286,4.0,5.0,45,0.00,,,0.00,Wunderground v.1.15,2013-04-03 12:38:00,
2013-04-03 08:44:00,34.4,14.7,30.03,West,281,4.0,11.0,44,0.00,,,0.00,Wunderground v.1.15,2013-04-03 12:44:00,
2013-04-03 08:50:00,34.4,14.7,30.03,WNW,296,4.0,4.0,44,0.00,,,0.00,Wunderground v.1.15,2013-04-03 12:50:00,
2013-04-03 08:56:00,34.4,14.7,30.03,WNW,294,4.0,6.0,44,0.00,,,0.00,Wunderground v.1.15,2013-04-03 12:56:00,
2013-04-03 09:02:00,35.1,15.3,30.03,West,279,4.0,5.0,44,0.00,,,0.00,Wunderground v.1.15,2013-04-03 13:02:00,
2013-04-03 09:08:00,34.8,14.0,30.02,West,281,5.0,13.0,42,0.00,,,0.00,Wunderground v.1.15,2013-04-03 13:08:00,
2013-04-03 09:14:00,34.9,14.1,30.02,WNW,292,6.0,7.0,42,0.00,,,0.00,Wunderground v.1.15,2013-04-03 13:14:00,
2013-04-03 09:20:00,35.1,15.3,30.01,West,273,6.0,6.0,44,0.00,,,0.00,Wunderground v.1.15,2013-04-03 13:20:00,
2013-04-03 09:26:00,35.8,14.9,30.01,WNW,284,4.0,7.0,42,0.00,,,0.00,Wunderground v.1.15,2013-04-03 13:26:00,
2013-04-03 09:32:00,35.8,14.4,30.01,WNW,287,5.0,5.0,41,0.00,,,0.00,Wunderground v.1.15,2013-04-03 13:32:00,
2013-04-03 09:38:00,36.1,15.2,30.01,West,268,4.0,5.0,42,0.00,,,0.00,Wunderground v.1.15,2013-04-03 13:38:00,
2013-04-03 09:44:00,36.8,15.3,30.01,WNW,292,3.0,5.0,41,0.00,,,0.00,Wunderground v.1.15,2013-04-03 13:44:00,
2013-04-03 09:50:00,36.9,15.4,30.01,NW,309,3.0,6.0,41,0.00,,,0.00,Wunderground v.1.15,2013-04-03 13:50:00,
2013-04-03 09:56:00,36.6,14.5,30.01,WNW,296,6.0,7.0,40,0.00,,,0.00,Wunderground v.1.15,2013-04-03 13:56:00,
2013-04-03 10:02:00,36.8,15.3,30.01,WNW,294,6.0,7.0,41,0.00,,,0.00,Wunderground v.1.15,2013-04-03 14:02:00,
2013-04-03 10:08:00,37.2,14.5,30.01,West,280,5.0,11.0,39,0.00,,,0.00,Wunderground v.1.15,2013-04-03 14:08:00,
2013-04-03 10:14:00,37.0,14.3,30.00,NW,306,7.0,14.0,39,0.00,,,0.00,Wunderground v.1.15,2013-04-03 14:14:00,
2013-04-03 10:20:00,37.5,14.2,30.00,West,274,6.0,6.0,38,0.00,,,0.00,Wunderground v.1.15,2013-04-03 14:20:00,
2013-04-03 10:26:00,37.9,14.5,30.01,West,277,5.0,6.0,38,0.00,,,0.00,Wunderground v.1.15,2013-04-03 14:26:00,
2013-04-03 10:32:00,38.2,14.8,30.01,West,264,5.0,6.0,38,0.00,,,0.00,Wunderground v.1.15,2013-04-03 14:32:00,
2013-04-03 10:38:00,38.6,15.1,30.01,NW,326,5.0,8.0,38,0.00,,,0.00,Wunderground v.1.15,2013-04-03 14:38:00,
2013-04-03 10:44:00,39.0,14.3,30.01,WNW,290,4.0,9.0,36,0.00,,,0.00,Wunderground v.1.15,2013-04-03 14:44:00,
2013-04-03 10:50:00,39.1,15.0,30.01,WNW,292,5.0,5.0,37,0.00,,,0.00,Wunderground v.1.15,2013-04-03 14:50:00,
2013-04-03 10:56:00,39.6,14.2,30.01,WNW,294,5.0,8.0,35,0.00,,,0.00,Wunderground v.1.15,2013-04-03 14:56:00,
2013-04-03 11:02:00,39.4,13.3,30.01,NNE,17,6.0,6.0,34,0.00,,,0.00,Wunderground v.1.15,2013-04-03 15:02:00,
2013-04-03 11:08:00,39.6,14.8,30.00,WNW,299,6.0,6.0,36,0.00,,,0.00,Wunderground v.1.15,2013-04-03 15:08:00,
2013-04-03 11:14:00,40.1,14.6,30.00,SSW,211,4.0,6.0,35,0.00,,,0.00,Wunderground v.1.15,2013-04-03 15:14:00,
2013-04-03 11:20:00,40.7,14.5,30.00,WNW,296,4.0,5.0,34,0.00,,,0.00,Wunderground v.1.15,2013-04-03 15:20:00,
2013-04-03 11:26:00,40.6,14.4,30.00,WSW,258,5.0,7.0,34,0.00,,,0.00,Wunderground v.1.15,2013-04-03 15:26:00,
2013-04-03 11:32:00,41.0,14.7,30.00,West,276,5.0,6.0,34,0.00,,,0.00,Wunderground v.1.15,2013-04-03 15:32:00,
2013-04-03 11:38:00,41.4,14.4,30.00,West,279,5.0,11.0,33,0.00,,,0.00,Wunderground v.1.15,2013-04-03 15:38:00,
2013-04-03 11:44:00,41.6,14.6,30.00,WNW,300,4.0,5.0,33,0.00,,,0.00,Wunderground v.1.15,2013-04-03 15:44:00,
2013-04-03 11:50:00,41.7,14.7,30.00,West,273,5.0,7.0,33,0.00,,,0.00,Wunderground v.1.15,2013-04-03 15:50:00,
2013-04-03 11:56:00,41.8,14.1,30.00,WNW,288,5.0,10.0,32,0.00,,,0.00,Wunderground v.1.15,2013-04-03 15:56:00,
2013-04-03 12:02:00,41.9,14.8,29.99,WNW,294,5.0,7.0,33,0.00,,,0.00,Wunderground v.1.15,2013-04-03 16:02:00,
2013-04-03 12:08:00,42.0,14.2,29.99,West,271,5.0,7.0,32,0.00,,,0.00,Wunderground v.1.15,2013-04-03 16:08:00,
2013-04-03 12:14:00,42.7,14.8,29.99,WNW,283,5.0,5.0,32,0.00,,,0.00,Wunderground v.1.15,2013-04-03 16:14:00,
2013-04-03 12:20:00,42.4,14.6,29.99,WNW,300,6.0,6.0,32,0.00,,,0.00,Wunderground v.1.15,2013-04-03 16:20:00,
2013-04-03 12:26:00,42.4,13.9,29.99,WNW,298,6.0,6.0,31,0.00,,,0.00,Wunderground v.1.15,2013-04-03 16:26:00,
2013-04-03 12:32:00,42.6,14.8,29.99,NW,322,6.0,9.0,32,0.00,,,0.00,Wunderground v.1.15,2013-04-03 16:32:00,
2013-04-03 12:38:00,43.1,15.9,29.99,NW,325,5.0,9.0,33,0.00,,,0.00,Wunderground v.1.15,2013-04-03 16:38:00,
2013-04-03 12:44:00,43.1,15.9,29.99,WNW,299,6.0,10.0,33,0.00,,,0.00,Wunderground v.1.15,2013-04-03 16:44:00,
2013-04-03 12:50:00,43.6,14.9,29.99,WNW,284,6.0,6.0,31,0.00,,,0.00,Wunderground v.1.15,2013-04-03 16:50:00,
2013-04-03 12:56:00,43.2,14.6,29.99,West,260,6.0,8.0,31,0.00,,,0.00,Wunderground v.1.15,2013-04-03 16:56:00,
2013-04-03 13:02:00,43.8,15.1,29.99,WNW,295,6.0,6.0,31,0.00,,,0.00,Wunderground v.1.15,2013-04-03 17:02:00,
2013-04-03 13:08:00,44.0,16.0,29.99,WNW,286,5.0,6.0,32,0.00,,,0.00,Wunderground v.1.15,2013-04-03 17:08:00,
2013-04-03 13:14:00,43.4,15.5,29.98,West,273,6.0,7.0,32,0.00,,,0.00,Wunderground v.1.15,2013-04-03 17:14:00,
2013-04-03 13:20:00,44.1,15.3,29.99,WNW,296,5.0,6.0,31,0.00,,,0.00,Wunderground v.1.15,2013-04-03 17:20:00,
2013-04-03 13:26:00,44.3,16.3,29.98,WNW,300,5.0,8.0,32,0.00,,,0.00,Wunderground v.1.15,2013-04-03 17:26:00,
2013-04-03 13:32:00,44.3,16.3,29.98,SSW,202,5.0,6.0,32,0.00,,,0.00,Wunderground v.1.15,2013-04-03 17:32:00,
2013-04-03 13:38:00,44.7,16.6,29.99,WNW,283,5.0,8.0,32,0.00,,,0.00,Wunderground v.1.15,2013-04-03 17:38:00,
2013-04-03 13:44:00,44.8,16.0,29.99,WNW,296,5.0,6.0,31,0.00,,,0.00,Wunderground v.1.15,2013-04-03 17:44:00,
2013-04-03 13:50:00,44.4,14.1,29.98,WNW,290,5.0,13.0,29,0.00,,,0.00,Wunderground v.1.15,2013-04-03 17:50:00,
2013-04-03 13:56:00,44.3,14.8,29.98,West,274,6.0,13.0,30,0.00,,,0.00,Wunderground v.1.15,2013-04-03 17:56:00,
2013-04-03 14:02:00,45.0,16.1,29.98,West,273,6.0,9.0,31,0.00,,,0.00,Wunderground v.1.15,2013-04-03 18:02:00,
2013-04-03 14:08:00,45.0,14.6,29.98,WNW,290,5.0,9.0,29,0.00,,,0.00,Wunderground v.1.15,2013-04-03 18:08:00,
2013-04-03 14:14:00,44.6,15.8,29.99,WNW,284,5.0,10.0,31,0.00,,,0.00,Wunderground v.1.15,2013-04-03 18:14:00,
2013-04-03 14:20:00,44.4,14.9,29.99,WNW,283,7.0,7.0,30,0.00,,,0.00,Wunderground v.1.15,2013-04-03 18:20:00,
2013-04-03 14:26:00,44.3,15.5,29.98,West,275,7.0,12.0,31,0.00,,,0.00,Wunderground v.1.15,2013-04-03 18:26:00,
2013-04-03 14:32:00,45.0,16.1,29.98,WNW,300,6.0,7.0,31,0.00,,,0.00,Wunderground v.1.15,2013-04-03 18:32:00,
2013-04-03 14:38:00,45.5,16.6,29.98,West,276,5.0,7.0,31,0.00,,,0.00,Wunderground v.1.15,2013-04-03 18:38:00,
2013-04-03 14:44:00,46.3,16.5,29.98,WNW,294,4.0,6.0,30,0.00,,,0.00,Wunderground v.1.15,2013-04-03 18:44:00,
2013-04-03 14:50:00,46.0,15.5,29.98,WNW,288,5.0,5.0,29,0.00,,,0.00,Wunderground v.1.15,2013-04-03 18:50:00,
2013-04-03 14:56:00,45.8,16.1,29.98,WNW,302,6.0,8.0,30,0.00,,,0.00,Wunderground v.1.15,2013-04-03 18:56:00,
2013-04-03 15:02:00,46.2,15.6,29.98,NW,308,6.0,14.0,29,0.00,,,0.00,Wunderground v.1.15,2013-04-03 19:02:00,
2013-04-03 15:08:00,46.5,15.9,29.98,WNW,301,5.0,14.0,29,0.00,,,0.00,Wunderground v.1.15,2013-04-03 19:08:00,
2013-04-03 15:14:00,46.0,15.5,29.98,WNW,294,5.0,10.0,29,0.00,,,0.00,Wunderground v.1.15,2013-04-03 19:14:00,
2013-04-03 15:20:00,45.6,14.3,29.98,NW,321,6.0,6.0,28,0.00,,,0.00,Wunderground v.1.15,2013-04-03 19:20:00,
2013-04-03 15:26:00,45.9,14.6,29.98,WNW,292,6.0,11.0,28,0.00,,,0.00,Wunderground v.1.15,2013-04-03 19:26:00,
2013-04-03 15:32:00,45.9,14.6,29.98,WNW,291,7.0,12.0,28,0.00,,,0.00,Wunderground v.1.15,2013-04-03 19:32:00,
2013-04-03 15:38:00,45.6,14.3,29.98,West,273,7.0,12.0,28,0.00,,,0.00,Wunderground v.1.15,2013-04-03 19:38:00,
2013-04-03 15:44:00,46.1,13.9,29.98,West,273,4.0,6.0,27,0.00,,,0.00,Wunderground v.1.15,2013-04-03 19:44:00,
2013-04-03 15:50:00,45.9,14.6,29.98,WNW,294,5.0,5.0,28,0.00,,,0.00,Wunderground v.1.15,2013-04-03 19:50:00,
2013-04-03 15:56:00,45.8,13.7,29.98,West,281,6.0,9.0,27,0.00,,,0.00,Wunderground v.1.15,2013-04-03 19:56:00,
2013-04-03 16:02:00,46.0,13.8,29.98,West,276,6.0,11.0,27,0.00,,,0.00,Wunderground v.1.15,2013-04-03 20:02:00,
2013-04-03 16:08:00,46.0,13.8,29.97,WNW,288,6.0,11.0,27,0.00,,,0.00,Wunderground v.1.15,2013-04-03 20:08:00,
2013-04-03 16:14:00,46.0,13.8,29.98,WNW,290,5.0,6.0,27,0.00,,,0.00,Wunderground v.1.15,2013-04-03 20:14:00,
2013-04-03 16:20:00,45.9,14.6,29.98,West,273,6.0,6.0,28,0.00,,,0.00,Wunderground v.1.15,2013-04-03 20:20:00,
2013-04-03 16:26:00,46.0,13.8,29.97,WNW,286,6.0,7.0,27,0.00,,,0.00,Wunderground v.1.15,2013-04-03 20:26:00,
2013-04-03 16:32:00,46.3,14.9,29.97,WNW,292,5.0,5.0,28,0.00,,,0.00,Wunderground v.1.15,2013-04-03 20:32:00,
2013-04-03 16:38:00,46.3,14.9,29.97,WNW,298,4.0,5.0,28,0.00,,,0.00,Wunderground v.1.15,2013-04-03 20:38:00,
2013-04-03 16:44:00,46.1,15.6,29.97,West,263,5.0,5.0,29,0.00,,,0.00,Wunderground v.1.15,2013-04-03 20:44:00,
2013-04-03 16:50:00,46.0,15.5,29.97,NW,311,4.0,5.0,29,0.00,,,0.00,Wunderground v.1.15,2013-04-03 20:50:00,
2013-04-03 16:58:00,46.3,15.7,29.98,WNW,286,4.0,5.0,29,0.00,,,0.00,Wunderground v.1.15,2013-04-03 20:58:00,
2013-04-03 17:04:00,46.0,15.5,29.98,WNW,284,5.0,9.0,29,0.00,,,0.00,Wunderground v.1.15,2013-04-03 21:04:00,
2013-04-03 17:10:00,46.0,15.5,29.97,West,273,5.0,10.0,29,0.00,,,0.00,Wunderground v.1.15,2013-04-03 21:10:00,
2013-04-03 17:16:00,46.0,15.5,29.98,West,277,4.0,10.0,29,0.00,,,0.00,Wunderground v.1.15,2013-04-03 21:16:00,
2013-04-03 17:22:00,45.9,15.4,29.98,WNW,284,5.0,5.0,29,0.00,,,0.00,Wunderground v.1.15,2013-04-03 21:22:00,
2013-04-03 17:28:00,45.9,15.4,29.99,West,275,5.0,10.0,29,0.00,,,0.00,Wunderground v.1.15,2013-04-03 21:28:00,
2013-04-03 17:34:00,45.8,15.3,29.99,WNW,296,4.0,5.0,29,0.00,,,0.00,Wunderground v.1.15,2013-04-03 21:34:00,
2013-04-03 17:40:00,45.6,15.1,29.99,WNW,292,4.0,6.0,29,0.00,,,0.00,Wunderground v.1.15,2013-04-03 21:40:00,
2013-04-03 17:48:00,45.4,15.7,29.99,WNW,283,4.0,9.0,30,0.00,,,0.00,Wunderground v.1.15,2013-04-03 21:48:00,
2013-04-03 17:54:00,45.2,14.8,29.99,West,277,5.0,5.0,29,0.00,,,0.00,Wunderground v.1.15,2013-04-03 21:54:00,
2013-04-03 18:00:00,45.0,15.4,30.00,NW,306,5.0,7.0,30,0.00,,,0.00,Wunderground v.1.15,2013-04-03 22:00:00,
2013-04-03 18:06:00,45.0,16.1,30.00,WSW,244,3.0,7.0,31,0.00,,,0.00,Wunderground v.1.15,2013-04-03 22:06:00,
2013-04-03 18:12:00,44.9,16.0,30.00,WNW,284,3.0,4.0,31,0.00,,,0.00,Wunderground v.1.15,2013-04-03 22:12:00,
2013-04-03 18:18:00,44.7,15.9,30.01,WNW,298,5.0,9.0,31,0.00,,,0.00,Wunderground v.1.15,2013-04-03 22:18:00,
2013-04-03 18:24:00,44.4,15.6,30.01,WNW,291,5.0,8.0,31,0.00,,,0.00,Wunderground v.1.15,2013-04-03 22:24:00,
2013-04-03 18:30:00,44.0,15.3,30.02,WNW,295,5.0,9.0,31,0.00,,,0.00,Wunderground v.1.15,2013-04-03 22:30:00,
2013-04-03 18:36:00,43.6,14.9,30.02,West,275,4.0,9.0,31,0.00,,,0.00,Wunderground v.1.15,2013-04-03 22:36:00,
2013-04-03 18:42:00,43.3,15.4,30.02,West,277,3.0,4.0,32,0.00,,,0.00,Wunderground v.1.15,2013-04-03 22:42:00,
2013-04-03 18:48:00,43.0,15.8,30.03,West,267,3.0,5.0,33,0.00,,,0.00,Wunderground v.1.15,2013-04-03 22:48:00,
2013-04-03 18:54:00,42.8,16.3,30.04,WNW,287,2.0,4.0,34,0.00,,,0.00,Wunderground v.1.15,2013-04-03 22:54:00,
2013-04-03 19:00:00,42.5,15.4,30.04,WNW,282,2.0,6.0,33,0.00,,,0.00,Wunderground v.1.15,2013-04-03 23:00:00,
2013-04-03 19:06:00,42.2,15.1,30.05,WNW,288,4.0,6.0,33,0.00,,,0.00,Wunderground v.1.15,2013-04-03 23:06:00,
2013-04-03 19:12:00,42.0,15.6,30.05,West,277,3.0,4.0,34,0.00,,,0.00,Wunderground v.1.15,2013-04-03 23:12:00,
2013-04-03 19:18:00,41.7,15.4,30.05,NW,318,3.0,4.0,34,0.00,,,0.00,Wunderground v.1.15,2013-04-03 23:18:00,
2013-04-03 19:24:00,41.5,15.2,30.06,West,279,4.0,7.0,34,0.00,,,0.00,Wunderground v.1.15,2013-04-03 23:24:00,
2013-04-03 19:30:00,41.4,15.1,30.06,WNW,294,5.0,5.0,34,0.00,,,0.00,Wunderground v.1.15,2013-04-03 23:30:00,
2013-04-03 19:36:00,41.2,15.6,30.07,West,281,5.0,7.0,35,0.00,,,0.00,Wunderground v.1.15,2013-04-03 23:36:00,
2013-04-03 19:42:00,41.1,15.5,30.07,West,261,5.0,5.0,35,0.00,,,0.00,Wunderground v.1.15,2013-04-03 23:42:00,
2013-04-03 19:48:00,40.8,15.9,30.08,West,273,4.0,6.0,36,0.00,,,0.00,Wunderground v.1.15,2013-04-03 23:48:00,
2013-04-03 19:54:00,40.6,15.7,30.08,WNW,293,4.0,5.0,36,0.00,,,0.00,Wunderground v.1.15,2013-04-03 23:54:00,
2013-04-03 20:00:00,40.4,15.5,30.09,WNW,286,5.0,5.0,36,0.00,,,0.00,Wunderground v.1.15,2013-04-04 00:00:00,
2013-04-03 20:06:00,40.2,15.3,30.09,WNW,294,5.0,6.0,36,0.00,,,0.00,Wunderground v.1.15,2013-04-04 00:06:00,
2013-04-03 20:12:00,40.1,15.9,30.09,WNW,284,6.0,6.0,37,0.00,,,0.00,Wunderground v.1.15,2013-04-04 00:12:00,
2013-04-03 20:18:00,40.0,15.8,30.10,WNW,282,6.0,7.0,37,0.00,,,0.00,Wunderground v.1.15,2013-04-04 00:18:00,
2013-04-03 20:24:00,39.8,15.6,30.10,WNW,300,5.0,9.0,37,0.00,,,0.00,Wunderground v.1.15,2013-04-04 00:24:00,
2013-04-03 20:30:00,39.5,16.0,30.11,WSW,254,3.0,4.0,38,0.00,,,0.00,Wunderground v.1.15,2013-04-04 00:30:00,
2013-04-03 20:36:00,39.3,16.4,30.11,WNW,294,2.0,4.0,39,0.00,,,0.00,Wunderground v.1.15,2013-04-04 00:36:00,
2013-04-03 20:42:00,39.1,16.2,30.12,WNW,288,3.0,4.0,39,0.00,,,0.00,Wunderground v.1.15,2013-04-04 00:42:00,
2013-04-03 20:48:00,38.9,16.0,30.12,NW,305,3.0,4.0,39,0.00,,,0.00,Wunderground v.1.15,2013-04-04 00:48:00,
2013-04-03 20:56:00,38.8,15.9,30.12,West,279,4.0,6.0,39,0.00,,,0.00,Wunderground v.1.15,2013-04-04 00:56:00,
2013-04-03 21:02:00,38.7,16.4,30.12,West,276,3.0,4.0,40,0.00,,,0.00,Wunderground v.1.15,2013-04-04 01:02:00,
2013-04-03 21:08:00,38.5,16.2,30.13,WNW,300,3.0,6.0,40,0.00,,,0.00,Wunderground v.1.15,2013-04-04 01:08:00,
2013-04-03 21:14:00,38.3,16.6,30.13,WNW,294,3.0,9.0,41,0.00,,,0.00,Wunderground v.1.15,2013-04-04 01:14:00,
2013-04-03 21:20:00,38.2,16.5,30.13,West,263,4.0,4.0,41,0.00,,,0.00,Wunderground v.1.15,2013-04-04 01:20:00,
2013-04-03 21:26:00,38.0,16.9,30.14,WNW,295,3.0,5.0,42,0.00,,,0.00,Wunderground v.1.15,2013-04-04 01:26:00,
2013-04-03 21:32:00,37.8,16.7,30.14,WNW,294,3.0,9.0,42,0.00,,,0.00,Wunderground v.1.15,2013-04-04 01:32:00,
2013-04-03 21:38:00,37.7,16.6,30.14,WNW,302,3.0,9.0,42,0.00,,,0.00,Wunderground v.1.15,2013-04-04 01:38:00,
2013-04-03 21:44:00,37.6,16.5,30.15,WNW,295,3.0,4.0,42,0.00,,,0.00,Wunderground v.1.15,2013-04-04 01:44:00,
2013-04-03 21:50:00,37.4,16.9,30.15,WNW,297,3.0,3.0,43,0.00,,,0.00,Wunderground v.1.15,2013-04-04 01:50:00,
2013-04-03 21:56:00,37.2,16.7,30.15,WNW,282,3.0,5.0,43,0.00,,,0.00,Wunderground v.1.15,2013-04-04 01:56:00,
2013-04-03 22:02:00,37.0,16.5,30.16,West,269,3.0,4.0,43,0.00,,,0.00,Wunderground v.1.15,2013-04-04 02:02:00,
2013-04-03 22:08:00,36.9,17.0,30.16,WNW,286,3.0,4.0,44,0.00,,,0.00,Wunderground v.1.15,2013-04-04 02:08:00,
2013-04-03 22:14:00,36.8,16.9,30.16,WNW,288,2.0,4.0,44,0.00,,,0.00,Wunderground v.1.15,2013-04-04 02:14:00,
2013-04-03 22:20:00,36.6,16.7,30.16,WSW,251,2.0,4.0,44,0.00,,,0.00,Wunderground v.1.15,2013-04-04 02:20:00,
2013-04-03 22:28:00,36.4,17.1,30.16,WNW,284,2.0,4.0,45,0.00,,,0.00,Wunderground v.1.15,2013-04-04 02:28:00,
2013-04-03 22:34:00,36.2,16.9,30.17,WNW,290,1.0,4.0,45,0.00,,,0.00,Wunderground v.1.15,2013-04-04 02:34:00,
2013-04-03 22:40:00,36.1,16.8,30.17,WNW,288,1.0,1.0,45,0.00,,,0.00,Wunderground v.1.15,2013-04-04 02:40:00,
2013-04-03 22:46:00,35.9,17.1,30.18,West,281,1.0,4.0,46,0.00,,,0.00,Wunderground v.1.15,2013-04-04 02:46:00,
2013-04-03 22:52:00,35.8,17.0,30.18,NW,306,1.0,4.0,46,0.00,,,0.00,Wunderground v.1.15,2013-04-04 02:52:00,
2013-04-03 22:58:00,35.7,16.9,30.18,WNW,292,1.0,4.0,46,0.00,,,0.00,Wunderground v.1.15,2013-04-04 02:58:00,
2013-04-03 23:04:00,35.6,16.8,30.17,WNW,283,1.0,4.0,46,0.00,,,0.00,Wunderground v.1.15,2013-04-04 03:04:00,
2013-04-03 23:10:00,35.6,16.8,30.18,WNW,302,1.0,4.0,46,0.00,,,0.00,Wunderground v.1.15,2013-04-04 03:10:00,
2013-04-03 23:16:00,35.6,16.8,30.19,WNW,288,1.0,4.0,46,0.00,,,0.00,Wunderground v.1.15,2013-04-04 03:16:00,
2013-04-03 23:22:00,35.5,17.2,30.19,WNW,288,0.0,4.0,47,0.00,,,0.00,Wunderground v.1.15,2013-04-04 03:22:00,
2013-04-03 23:28:00,35.3,17.1,30.19,WNW,288,0.0,4.0,47,0.00,,,0.00,Wunderground v.1.15,2013-04-04 03:28:00,
2013-04-03 23:34:00,35.1,16.9,30.19,WNW,288,0.0,4.0,47,0.00,,,0.00,Wunderground v.1.15,2013-04-04 03:34:00,
2013-04-03 23:40:00,35.0,17.3,30.19,NW,317,0.0,4.0,48,0.00,,,0.00,Wunderground v.1.15,2013-04-04 03:40:00,
2013-04-03 23:48:00,34.8,17.1,30.20,WNW,298,0.0,4.0,48,0.00,,,0.00,Wunderground v.1.15,2013-04-04 03:48:00,
2013-04-03 23:54:00,34.8,17.1,30.20,WNW,298,0.0,4.0,48,0.00,,,0.00,Wunderground v.1.15,2013-04-04 03:54:00,